Time,TemperatureF,DewpointF,PressureIn,WindDirection,WindDirectionDegrees,WindSpeedMPH,WindSpeedGustMPH,Humidity,HourlyPrecipIn,Conditions,Clouds,dailyrainin,SoftwareType,DateUTC
2013-01-16 00:00:00,28.0,0.0,30.44,NW,311,5.0,10.0,38,-99.99,,,-99.99,,2013-01-16 08:00:00,
2013-01-16 00:08:00,27.0,0.0,30.43,NW,325,1.0,1.0,37,-99.99,,,-99.99,,2013-01-16 08:08:00,
2013-01-16 00:16:00,27.0,0.0,30.43,NW,308,6.0,6.0,38,-99.99,,,-99.99,,2013-01-16 08:16:00,
2013-01-16 00:24:00,27.0,0.0,30.43,NW,307,9.0,9.0,40,-99.99,,,-99.99,,2013-01-16 08:24:00,
2013-01-16 00:32:00,27.0,0.0,30.43,NW,308,2.0,3.0,38,-99.99,,,-99.99,,2013-01-16 08:32:00,
2013-01-16 00:40:00,28.0,0.0,30.43,WNW,299,12.0,12.0,39,-99.99,,,-99.99,,2013-01-16 08:40:00,
2013-01-16 00:48:00,27.0,0.0,30.43,NW,311,9.0,10.0,42,-99.99,,,-99.99,,2013-01-16 08:48:00,
2013-01-16 00:56:00,27.0,0.0,30.43,NW,312,13.0,13.0,41,-99.99,,,-99.99,,2013-01-16 08:56:00,
2013-01-16 01:04:00,27.0,0.0,30.43,NW,314,8.0,12.0,41,-99.99,,,-99.99,,2013-01-16 09:04:00,
2013-01-16 01:12:00,27.0,0.0,30.43,NW,320,14.0,14.0,42,-99.99,,,-99.99,,2013-01-16 09:12:00,
2013-01-16 01:20:00,27.0,0.0,30.43,NW,304,13.0,13.0,42,-99.99,,,-99.99,,2013-01-16 09:20:00,
2013-01-16 01:28:00,27.0,0.0,30.43,NW,325,9.0,10.0,40,-99.99,,,-99.99,,2013-01-16 09:28:00,
2013-01-16 01:36:00,27.0,0.0,30.43,NW,323,8.0,8.0,41,-99.99,,,-99.99,,2013-01-16 09:36:00,
2013-01-16 01:44:00,27.0,0.0,30.43,NW,318,5.0,7.0,41,-99.99,,,-99.99,,2013-01-16 09:44:00,
2013-01-16 01:52:00,28.0,0.0,30.43,NW,323,12.0,12.0,44,-99.99,,,-99.99,,2013-01-16 09:52:00,
2013-01-16 02:00:00,28.0,0.0,30.43,NW,323,12.0,12.0,42,-99.99,,,-99.99,,2013-01-16 10:00:00,
2013-01-16 02:08:00,28.0,0.0,30.43,NW,326,10.0,10.0,41,-99.99,,,-99.99,,2013-01-16 10:08:00,
2013-01-16 02:16:00,27.0,0.0,30.43,NW,318,0.0,0.0,41,-99.99,,,-99.99,,2013-01-16 10:16:00,
2013-01-16 02:24:00,27.0,0.0,30.43,NW,318,6.0,6.0,40,-99.99,,,-99.99,,2013-01-16 10:24:00,
2013-01-16 02:32:00,26.0,0.0,30.43,NW,315,7.0,8.0,42,-99.99,,,-99.99,,2013-01-16 10:32:00,
2013-01-16 02:40:00,26.0,0.0,30.43,NW,318,3.0,6.0,43,-99.99,,,-99.99,,2013-01-16 10:40:00,
2013-01-16 02:48:00,26.0,0.0,30.44,NW,305,5.0,5.0,45,-99.99,,,-99.99,,2013-01-16 10:48:00,
2013-01-16 02:56:00,26.0,0.0,30.44,WNW,299,9.0,12.0,44,-99.99,,,-99.99,,2013-01-16 10:56:00,
2013-01-16 03:04:00,26.0,0.0,30.44,WNW,296,9.0,9.0,45,-99.99,,,-99.99,,2013-01-16 11:04:00,
2013-01-16 03:12:00,26.0,0.0,30.43,NW,324,7.0,8.0,46,-99.99,,,-99.99,,2013-01-16 11:12:00,
2013-01-16 03:20:00,27.0,0.0,30.43,WNW,303,5.0,7.0,44,-99.99,,,-99.99,,2013-01-16 11:20:00,
2013-01-16 03:28:00,26.0,0.0,30.43,NW,313,0.0,0.0,43,-99.99,,,-99.99,,2013-01-16 11:28:00,
2013-01-16 03:36:00,26.0,0.0,30.43,NW,312,0.0,0.0,44,-99.99,,,-99.99,,2013-01-16 11:36:00,
2013-01-16 03:44:00,25.0,0.0,30.43,NW,325,7.0,8.0,45,-99.99,,,-99.99,,2013-01-16 11:44:00,
2013-01-16 03:52:00,25.0,0.0,30.43,NW,322,5.0,8.0,42,-99.99,,,-99.99,,2013-01-16 11:52:00,
2013-01-16 04:00:00,25.0,0.0,30.43,NW,311,0.0,0.0,42,-99.99,,,-99.99,,2013-01-16 12:00:00,
2013-01-16 04:08:00,24.0,0.0,30.42,NW,313,5.0,6.0,43,-99.99,,,-99.99,,2013-01-16 12:08:00,
2013-01-16 04:16:00,23.0,0.0,30.42,NW,313,0.0,0.0,46,-99.99,,,-99.99,,2013-01-16 12:16:00,
2013-01-16 04:24:00,23.0,0.0,30.42,NW,320,5.0,8.0,46,-99.99,,,-99.99,,2013-01-16 12:24:00,
2013-01-16 04:32:00,24.0,0.0,30.42,NW,305,0.0,0.0,45,-99.99,,,-99.99,,2013-01-16 12:32:00,
2013-01-16 04:40:00,24.0,0.0,30.42,WNW,296,0.0,3.0,45,-99.99,,,-99.99,,2013-01-16 12:40:00,
2013-01-16 04:48:00,24.0,0.0,30.42,NW,313,0.0,0.0,43,-99.99,,,-99.99,,2013-01-16 12:48:00,
2013-01-16 04:56:00,23.0,0.0,30.42,NW,316,0.0,0.0,43,-99.99,,,-99.99,,2013-01-16 12:56:00,
2013-01-16 05:04:00,23.0,0.0,30.42,NW,305,0.0,0.0,43,-99.99,,,-99.99,,2013-01-16 13:04:00,
2013-01-16 05:12:00,22.0,0.0,30.42,NW,309,0.0,0.0,46,-99.99,,,-99.99,,2013-01-16 13:12:00,
2013-01-16 05:20:00,22.0,0.0,30.42,NW,321,6.0,6.0,47,-99.99,,,-99.99,,2013-01-16 13:20:00,
2013-01-16 05:28:00,22.0,0.0,30.42,WNW,287,2.0,2.0,47,-99.99,,,-99.99,,2013-01-16 13:28:00,
2013-01-16 05:36:00,23.0,0.0,30.42,NW,304,0.0,0.0,45,-99.99,,,-99.99,,2013-01-16 13:36:00,
2013-01-16 05:44:00,23.0,0.0,30.42,WNW,300,0.0,5.0,45,-99.99,,,-99.99,,2013-01-16 13:44:00,
2013-01-16 05:52:00,23.0,0.0,30.42,NW,319,0.0,0.0,46,-99.99,,,-99.99,,2013-01-16 13:52:00,
2013-01-16 06:00:00,23.0,0.0,30.42,NW,316,0.0,0.0,46,-99.99,,,-99.99,,2013-01-16 14:00:00,
2013-01-16 06:08:00,23.0,0.0,30.42,NW,326,0.0,0.0,45,-99.99,,,-99.99,,2013-01-16 14:08:00,
2013-01-16 06:16:00,22.0,0.0,30.42,NW,320,0.0,0.0,46,-99.99,,,-99.99,,2013-01-16 14:16:00,
2013-01-16 06:24:00,22.0,0.0,30.43,WNW,302,0.0,0.0,49,-99.99,,,-99.99,,2013-01-16 14:24:00,
2013-01-16 06:32:00,23.0,0.0,30.43,NW,309,0.0,0.0,47,-99.99,,,-99.99,,2013-01-16 14:32:00,
2013-01-16 06:40:00,22.0,0.0,30.43,NW,324,0.0,0.0,46,-99.99,,,-99.99,,2013-01-16 14:40:00,
2013-01-16 06:48:00,22.0,0.0,30.43,NW,326,0.0,0.0,47,-99.99,,,-99.99,,2013-01-16 14:48:00,
2013-01-16 06:56:00,21.0,0.0,30.43,NW,306,0.0,0.0,44,-99.99,,,-99.99,,2013-01-16 14:56:00,
2013-01-16 07:04:00,22.0,0.0,30.43,NW,316,0.0,0.0,50,-99.99,,,-99.99,,2013-01-16 15:04:00,
2013-01-16 07:12:00,23.0,0.0,30.44,NW,305,0.0,0.0,49,-99.99,,,-99.99,,2013-01-16 15:12:00,
2013-01-16 07:20:00,23.0,0.0,30.44,WNW,301,0.0,0.0,49,-99.99,,,-99.99,,2013-01-16 15:20:00,
2013-01-16 07:28:00,25.0,0.0,30.44,NW,322,0.0,0.0,44,-99.99,,,-99.99,,2013-01-16 15:28:00,
2013-01-16 07:36:00,26.0,0.0,30.44,WNW,300,0.0,7.0,44,-99.99,,,-99.99,,2013-01-16 15:36:00,
2013-01-16 07:44:00,26.0,0.0,30.44,NW,320,0.0,0.0,44,-99.99,,,-99.99,,2013-01-16 15:44:00,
2013-01-16 07:52:00,27.0,0.0,30.45,NW,308,0.0,1.0,44,-99.99,,,-99.99,,2013-01-16 15:52:00,
2013-01-16 08:00:00,29.0,0.0,30.45,NW,312,1.0,2.0,38,-99.99,,,-99.99,,2013-01-16 16:00:00,
2013-01-16 08:08:00,31.0,0.0,30.45,NW,310,12.0,12.0,38,-99.99,,,-99.99,,2013-01-16 16:08:00,
2013-01-16 08:16:00,33.0,0.0,30.45,NW,309,10.0,10.0,36,-99.99,,,-99.99,,2013-01-16 16:16:00,
2013-01-16 08:24:00,34.0,0.0,30.45,NW,320,6.0,6.0,34,-99.99,,,-99.99,,2013-01-16 16:24:00,
2013-01-16 08:32:00,38.0,0.0,30.46,NW,313,9.0,9.0,29,-99.99,,,-99.99,,2013-01-16 16:32:00,
2013-01-16 08:40:00,39.0,0.0,30.46,NW,322,0.0,0.0,31,-99.99,,,-99.99,,2013-01-16 16:40:00,
2013-01-16 08:48:00,41.0,0.0,30.46,NW,324,0.0,0.0,28,-99.99,,,-99.99,,2013-01-16 16:48:00,
2013-01-16 08:56:00,42.0,0.0,30.46,NW,326,0.0,0.0,25,-99.99,,,-99.99,,2013-01-16 16:56:00,
2013-01-16 09:04:00,42.0,0.0,30.46,NW,317,0.0,0.0,24,-99.99,,,-99.99,,2013-01-16 17:04:00,
2013-01-16 09:12:00,41.0,0.0,30.46,SSE,166,0.0,0.0,25,-99.99,,,-99.99,,2013-01-16 17:12:00,
2013-01-16 09:20:00,42.0,0.0,30.46,East,92,0.0,0.0,23,-99.99,,,-99.99,,2013-01-16 17:20:00,
2013-01-16 09:28:00,42.0,0.0,30.47,SSW,197,0.0,0.0,26,-99.99,,,-99.99,,2013-01-16 17:28:00,
2013-01-16 09:36:00,44.0,0.0,30.46,SE,135,0.0,0.0,23,-99.99,,,-99.99,,2013-01-16 17:36:00,
2013-01-16 09:44:00,45.0,0.0,30.46,North,1,0.0,0.0,22,-99.99,,,-99.99,,2013-01-16 17:44:00,
2013-01-16 09:52:00,48.0,0.0,30.46,NNW,335,6.0,6.0,22,-99.99,,,-99.99,,2013-01-16 17:52:00,
2013-01-16 10:00:00,47.0,0.0,30.46,NNW,331,2.0,2.0,20,-99.99,,,-99.99,,2013-01-16 18:00:00,
2013-01-16 10:08:00,46.0,0.0,30.46,NNW,338,0.0,0.0,20,-99.99,,,-99.99,,2013-01-16 18:08:00,
2013-01-16 10:16:00,47.0,0.0,30.45,NNW,338,2.0,2.0,19,-99.99,,,-99.99,,2013-01-16 18:16:00,
2013-01-16 10:24:00,46.0,0.0,30.45,NNE,15,0.0,0.0,19,-99.99,,,-99.99,,2013-01-16 18:24:00,
2013-01-16 10:32:00,47.0,0.0,30.44,ESE,119,0.0,0.0,19,-99.99,,,-99.99,,2013-01-16 18:32:00,
2013-01-16 10:40:00,47.0,0.0,30.44,East,98,0.0,0.0,20,-99.99,,,-99.99,,2013-01-16 18:40:00,
2013-01-16 10:48:00,47.0,0.0,30.43,NNW,338,2.0,2.0,19,-99.99,,,-99.99,,2013-01-16 18:48:00,
2013-01-16 10:56:00,48.0,0.0,30.42,NNW,340,2.0,2.0,20,-99.99,,,-99.99,,2013-01-16 18:56:00,
2013-01-16 11:04:00,48.0,0.0,30.42,NNW,335,1.0,2.0,18,-99.99,,,-99.99,,2013-01-16 19:04:00,
2013-01-16 11:12:00,48.0,0.0,30.42,East,101,2.0,2.0,18,-99.99,,,-99.99,,2013-01-16 19:12:00,
2013-01-16 11:20:00,48.0,0.0,30.41,NNW,340,0.0,0.0,20,-99.99,,,-99.99,,2013-01-16 19:20:00,
2013-01-16 11:28:00,49.0,0.0,30.40,NNW,336,2.0,2.0,19,-99.99,,,-99.99,,2013-01-16 19:28:00,
2013-01-16 11:36:00,49.0,0.0,30.40,NNW,335,5.0,5.0,18,-99.99,,,-99.99,,2013-01-16 19:36:00,
2013-01-16 11:44:00,50.0,0.0,30.40,NNW,339,0.0,2.0,20,-99.99,,,-99.99,,2013-01-16 19:44:00,
2013-01-16 11:52:00,50.0,0.0,30.39,NNW,335,2.0,2.0,21,-99.99,,,-99.99,,2013-01-16 19:52:00,
2013-01-16 12:00:00,50.0,0.0,30.39,NNW,343,0.0,0.0,20,-99.99,,,-99.99,,2013-01-16 20:00:00,
2013-01-16 12:08:00,50.0,0.0,30.38,SW,236,2.0,3.0,25,-99.99,,,-99.99,,2013-01-16 20:08:00,
2013-01-16 12:16:00,50.0,0.0,30.37,SW,232,0.0,0.0,22,-99.99,,,-99.99,,2013-01-16 20:16:00,
2013-01-16 12:24:00,51.0,0.0,30.37,NNW,336,0.0,0.0,21,-99.99,,,-99.99,,2013-01-16 20:24:00,
2013-01-16 12:32:00,51.0,0.0,30.36,South,176,8.0,10.0,22,-99.99,,,-99.99,,2013-01-16 20:32:00,
2013-01-16 12:40:00,52.0,0.0,30.35,South,187,2.0,2.0,20,-99.99,,,-99.99,,2013-01-16 20:40:00,
2013-01-16 12:48:00,52.0,0.0,30.35,ENE,58,0.0,0.0,20,-99.99,,,-99.99,,2013-01-16 20:48:00,
2013-01-16 12:56:00,53.0,0.0,30.35,SW,218,8.0,9.0,21,-99.99,,,-99.99,,2013-01-16 20:56:00,
2013-01-16 13:04:00,54.0,0.0,30.34,NNW,341,1.0,1.0,21,-99.99,,,-99.99,,2013-01-16 21:04:00,
2013-01-16 13:12:00,54.0,0.0,30.34,NNW,336,2.0,2.0,21,-99.99,,,-99.99,,2013-01-16 21:12:00,
2013-01-16 13:20:00,53.0,0.0,30.33,NNW,342,0.0,1.0,20,-99.99,,,-99.99,,2013-01-16 21:20:00,
2013-01-16 13:28:00,55.0,0.0,30.33,NNW,336,3.0,3.0,22,-99.99,,,-99.99,,2013-01-16 21:28:00,
2013-01-16 13:36:00,55.0,0.0,30.33,NNW,332,1.0,1.0,20,-99.99,,,-99.99,,2013-01-16 21:36:00,
2013-01-16 13:44:00,56.0,0.0,30.32,NW,326,0.0,0.0,20,-99.99,,,-99.99,,2013-01-16 21:44:00,
2013-01-16 13:52:00,56.0,0.0,30.32,NNW,339,1.0,1.0,19,-99.99,,,-99.99,,2013-01-16 21:52:00,
2013-01-16 14:00:00,54.0,0.0,30.32,SSW,200,9.0,9.0,23,-99.99,,,-99.99,,2013-01-16 22:00:00,
2013-01-16 14:08:00,54.0,0.0,30.32,NNW,339,0.0,1.0,22,-99.99,,,-99.99,,2013-01-16 22:08:00,
2013-01-16 14:16:00,54.0,0.0,30.31,NNW,340,0.0,0.0,22,-99.99,,,-99.99,,2013-01-16 22:16:00,
2013-01-16 14:24:00,54.0,0.0,30.31,SE,145,10.0,10.0,20,-99.99,,,-99.99,,2013-01-16 22:24:00,
2013-01-16 14:32:00,54.0,0.0,30.31,North,0,0.0,0.0,19,-99.99,,,-99.99,,2013-01-16 22:32:00,
2013-01-16 14:40:00,54.0,0.0,30.31,NNW,341,0.0,0.0,21,-99.99,,,-99.99,,2013-01-16 22:40:00,
2013-01-16 14:48:00,54.0,0.0,30.31,NNE,24,0.0,0.0,20,-99.99,,,-99.99,,2013-01-16 22:48:00,
2013-01-16 14:56:00,54.0,0.0,30.31,SSW,192,9.0,9.0,21,-99.99,,,-99.99,,2013-01-16 22:56:00,
2013-01-16 15:04:00,54.0,0.0,30.31,SSW,196,0.0,0.0,22,-99.99,,,-99.99,,2013-01-16 23:04:00,
2013-01-16 15:12:00,54.0,0.0,30.31,West,264,0.0,0.0,21,-99.99,,,-99.99,,2013-01-16 23:12:00,
2013-01-16 15:20:00,54.0,0.0,30.31,SE,125,0.0,0.0,21,-99.99,,,-99.99,,2013-01-16 23:20:00,
2013-01-16 15:28:00,54.0,0.0,30.31,NNW,335,2.0,2.0,22,-99.99,,,-99.99,,2013-01-16 23:28:00,
2013-01-16 15:36:00,54.0,0.0,30.31,North,8,0.0,0.0,19,-99.99,,,-99.99,,2013-01-16 23:36:00,
2013-01-16 15:44:00,54.0,0.0,30.31,North,0,1.0,1.0,21,-99.99,,,-99.99,,2013-01-16 23:44:00,
2013-01-16 15:52:00,54.0,0.0,30.31,NNW,335,0.0,1.0,19,-99.99,,,-99.99,,2013-01-16 23:52:00,
2013-01-16 16:00:00,53.0,0.0,30.31,East,96,3.0,5.0,21,-99.99,,,-99.99,,2013-01-17 00:00:00,
2013-01-16 16:08:00,53.0,0.0,30.31,SE,142,0.0,0.0,22,-99.99,,,-99.99,,2013-01-17 00:08:00,
2013-01-16 16:16:00,53.0,0.0,30.31,NNW,338,5.0,5.0,22,-99.99,,,-99.99,,2013-01-17 00:16:00,
2013-01-16 16:24:00,52.0,0.0,30.31,NNW,337,2.0,2.0,22,-99.99,,,-99.99,,2013-01-17 00:24:00,
2013-01-16 16:32:00,52.0,0.0,30.31,NNE,19,0.0,0.0,22,-99.99,,,-99.99,,2013-01-17 00:32:00,
2013-01-16 16:40:00,51.0,0.0,30.32,NNW,338,2.0,2.0,21,-99.99,,,-99.99,,2013-01-17 00:40:00,
2013-01-16 16:48:00,50.0,0.0,30.31,NNW,337,1.0,1.0,22,-99.99,,,-99.99,,2013-01-17 00:48:00,
2013-01-16 16:56:00,50.0,0.0,30.31,NNW,340,2.0,2.0,22,-99.99,,,-99.99,,2013-01-17 00:56:00,
2013-01-16 17:04:00,49.0,0.0,30.32,NNW,338,2.0,2.0,22,-99.99,,,-99.99,,2013-01-17 01:04:00,
2013-01-16 17:12:00,48.0,0.0,30.32,NNW,335,2.0,3.0,25,-99.99,,,-99.99,,2013-01-17 01:12:00,
2013-01-16 17:20:00,47.0,0.0,30.32,NNW,330,0.0,0.0,27,-99.99,,,-99.99,,2013-01-17 01:20:00,
2013-01-16 17:28:00,47.0,0.0,30.32,NNW,333,0.0,0.0,26,-99.99,,,-99.99,,2013-01-17 01:28:00,
2013-01-16 17:36:00,47.0,0.0,30.32,NNW,336,0.0,0.0,24,-99.99,,,-99.99,,2013-01-17 01:36:00,
2013-01-16 17:44:00,46.0,0.0,30.32,NNW,332,0.0,0.0,25,-99.99,,,-99.99,,2013-01-17 01:44:00,
2013-01-16 17:52:00,46.0,0.0,30.33,NNW,333,0.0,0.0,25,-99.99,,,-99.99,,2013-01-17 01:52:00,
2013-01-16 18:00:00,44.0,0.0,30.33,NNW,332,2.0,2.0,28,-99.99,,,-99.99,,2013-01-17 02:00:00,
2013-01-16 18:08:00,42.0,0.0,30.33,NW,318,7.0,7.0,30,-99.99,,,-99.99,,2013-01-17 02:08:00,
2013-01-16 18:16:00,43.0,0.0,30.33,NW,320,7.0,7.0,27,-99.99,,,-99.99,,2013-01-17 02:16:00,
2013-01-16 18:24:00,42.0,0.0,30.33,NW,321,9.0,9.0,26,-99.99,,,-99.99,,2013-01-17 02:24:00,
2013-01-16 18:32:00,41.0,0.0,30.33,NNW,330,6.0,8.0,29,-99.99,,,-99.99,,2013-01-17 02:32:00,
2013-01-16 18:40:00,42.0,0.0,30.33,WNW,295,7.0,10.0,30,-99.99,,,-99.99,,2013-01-17 02:40:00,
2013-01-16 18:48:00,42.0,0.0,30.33,NW,324,9.0,9.0,30,-99.99,,,-99.99,,2013-01-17 02:48:00,
2013-01-16 18:56:00,40.0,0.0,30.34,NW,326,9.0,9.0,30,-99.99,,,-99.99,,2013-01-17 02:56:00,
2013-01-16 19:04:00,40.0,0.0,30.34,WNW,300,13.0,13.0,29,-99.99,,,-99.99,,2013-01-17 03:04:00,
2013-01-16 19:12:00,38.0,0.0,30.34,NW,323,12.0,12.0,31,-99.99,,,-99.99,,2013-01-17 03:12:00,
2013-01-16 19:20:00,38.0,0.0,30.33,NW,321,12.0,12.0,32,-99.99,,,-99.99,,2013-01-17 03:20:00,
2013-01-16 19:28:00,38.0,0.0,30.34,NW,313,15.0,15.0,31,-99.99,,,-99.99,,2013-01-17 03:28:00,
2013-01-16 19:36:00,37.0,0.0,30.34,NW,323,10.0,13.0,30,-99.99,,,-99.99,,2013-01-17 03:36:00,
2013-01-16 19:44:00,36.0,0.0,30.34,NW,318,12.0,12.0,30,-99.99,,,-99.99,,2013-01-17 03:44:00,
2013-01-16 19:52:00,35.0,0.0,30.33,NW,323,10.0,12.0,31,-99.99,,,-99.99,,2013-01-17 03:52:00,
2013-01-16 20:00:00,35.0,0.0,30.33,NW,319,10.0,12.0,33,-99.99,,,-99.99,,2013-01-17 04:00:00,
2013-01-16 20:08:00,34.0,0.0,30.33,NW,314,13.0,13.0,34,-99.99,,,-99.99,,2013-01-17 04:08:00,
2013-01-16 20:16:00,34.0,0.0,30.33,NW,320,13.0,13.0,34,-99.99,,,-99.99,,2013-01-17 04:16:00,
2013-01-16 20:24:00,34.0,0.0,30.33,NW,319,12.0,12.0,34,-99.99,,,-99.99,,2013-01-17 04:24:00,
2013-01-16 20:32:00,33.0,0.0,30.34,NW,312,12.0,12.0,38,-99.99,,,-99.99,,2013-01-17 04:32:00,
2013-01-16 20:40:00,32.0,0.0,30.33,NW,321,10.0,12.0,36,-99.99,,,-99.99,,2013-01-17 04:40:00,
2013-01-16 20:48:00,32.0,0.0,30.33,NW,307,13.0,13.0,34,-99.99,,,-99.99,,2013-01-17 04:48:00,
2013-01-16 20:56:00,32.0,0.0,30.33,NW,314,14.0,14.0,38,-99.99,,,-99.99,,2013-01-17 04:56:00,
2013-01-16 21:01:00,32.0,0.0,30.33,WNW,296,10.0,12.0,36,-99.99,,,-99.99,,2013-01-17 05:01:00,
2013-01-16 21:04:00,33.0,0.0,30.33,WNW,300,12.0,12.0,38,-99.99,,,-99.99,,2013-01-17 05:04:00,
2013-01-16 21:08:00,33.0,0.0,30.33,WNW,299,10.0,12.0,38,-99.99,,,-99.99,,2013-01-17 05:08:00,
2013-01-16 21:16:00,33.0,0.0,30.33,WNW,298,15.0,15.0,38,-99.99,,,-99.99,,2013-01-17 05:16:00,
2013-01-16 21:20:00,33.0,0.0,30.33,NW,314,13.0,14.0,36,-99.99,,,-99.99,,2013-01-17 05:20:00,
2013-01-16 21:28:00,33.0,0.0,30.33,NW,317,14.0,14.0,36,-99.99,,,-99.99,,2013-01-17 05:28:00,
2013-01-16 21:36:00,33.0,0.0,30.33,NW,305,13.0,15.0,37,-99.99,,,-99.99,,2013-01-17 05:36:00,
2013-01-16 21:44:00,33.0,0.0,30.33,NW,310,13.0,13.0,38,-99.99,,,-99.99,,2013-01-17 05:44:00,
2013-01-16 21:52:00,32.0,0.0,30.33,WNW,302,12.0,13.0,40,-99.99,,,-99.99,,2013-01-17 05:52:00,
2013-01-16 22:00:00,32.0,0.0,30.33,NNW,329,9.0,10.0,37,-99.99,,,-99.99,,2013-01-17 06:00:00,
2013-01-16 22:08:00,32.0,0.0,30.33,NW,322,13.0,13.0,39,-99.99,,,-99.99,,2013-01-17 06:08:00,
2013-01-16 22:16:00,31.0,0.0,30.33,NW,319,9.0,9.0,39,-99.99,,,-99.99,,2013-01-17 06:16:00,
2013-01-16 22:24:00,31.0,0.0,30.33,NW,313,15.0,16.0,41,-99.99,,,-99.99,,2013-01-17 06:24:00,
2013-01-16 22:32:00,31.0,0.0,30.33,NW,315,12.0,12.0,41,-99.99,,,-99.99,,2013-01-17 06:32:00,
2013-01-16 22:40:00,31.0,0.0,30.33,WNW,294,10.0,12.0,40,-99.99,,,-99.99,,2013-01-17 06:40:00,
2013-01-16 22:48:00,30.0,0.0,30.32,WNW,303,14.0,14.0,41,-99.99,,,-99.99,,2013-01-17 06:48:00,
2013-01-16 22:56:00,30.0,0.0,30.33,NW,305,12.0,12.0,40,-99.99,,,-99.99,,2013-01-17 06:56:00,
2013-01-16 23:04:00,30.0,0.0,30.33,West,270,12.0,12.0,42,-99.99,,,-99.99,,2013-01-17 07:04:00,
2013-01-16 23:12:00,30.0,0.0,30.32,WNW,294,9.0,12.0,40,-99.99,,,-99.99,,2013-01-17 07:12:00,
2013-01-16 23:20:00,30.0,0.0,30.32,NW,323,14.0,14.0,42,-99.99,,,-99.99,,2013-01-17 07:20:00,
2013-01-16 23:28:00,29.0,0.0,30.32,NW,317,9.0,12.0,40,-99.99,,,-99.99,,2013-01-17 07:28:00,
2013-01-16 23:36:00,29.0,0.0,30.32,NW,316,12.0,12.0,43,-99.99,,,-99.99,,2013-01-17 07:36:00,
2013-01-16 23:44:00,29.0,0.0,30.32,NW,309,14.0,14.0,41,-99.99,,,-99.99,,2013-01-17 07:44:00,
2013-01-16 23:52:00,29.0,0.0,30.32,NW,320,14.0,14.0,41,-99.99,,,-99.99,,2013-01-17 07:52:00,